Time;durP1;ratioP1;P1;durP2;ratioP2;P2;SDS_P1;SDS_P2;PMS_P1;PMS_P2;Temp;Humidity;BMP_temperature;BMP_pressure;BME280_temperature;BME280_humidity;BME280_pressure;Samples;Min_cycle;Max_cycle;Signal;HPM_P1;HPM_P2
2022/01/28 00:00:07;;;;;;;7.50;5.87;;;6.10;99.90;;;;;;5053509;28;20236;-61
2022/01/28 00:05:20;;;;;;;7.03;5.70;;;6.10;99.90;;;;;;5053867;28;20255;-60
2022/01/28 00:07:47;;;;;;;6.53;5.83;;;6.10;99.90;;;;;;5054245;28;20244;-60
2022/01/28 00:10:16;;;;;;;7.80;6.10;;;6.20;99.90;;;;;;5053876;28;20233;-59
2022/01/28 00:13:05;;;;;;;7.43;5.80;;;6.30;99.90;;;;;;5053861;28;20209;-59
2022/01/28 00:15:36;;;;;;;9.00;6.33;;;6.20;99.90;;;;;;5054100;28;20209;-59
2022/01/28 00:37:25;;;;;;;7.97;6.07;;;6.30;99.90;;;;;;5053447;28;20204;-59
2022/01/28 00:39:52;;;;;;;8.67;6.67;;;6.30;99.90;;;;;;5053050;28;20275;-59
2022/01/28 00:42:20;;;;;;;9.27;6.87;;;6.40;99.90;;;;;;5053279;28;20747;-59
2022/01/28 00:44:46;;;;;;;8.50;6.53;;;6.50;99.90;;;;;;5053300;28;20214;-59
2022/01/28 00:47:13;;;;;;;7.30;5.90;;;6.50;99.90;;;;;;5053182;28;20209;-59
2022/01/28 00:49:39;;;;;;;6.63;5.93;;;6.50;99.90;;;;;;5052902;28;20255;-60
2022/01/28 00:52:07;;;;;;;9.33;6.70;;;6.50;99.90;;;;;;5053074;28;20271;-60
2022/01/28 00:54:33;;;;;;;8.73;6.70;;;6.50;99.90;;;;;;5053007;28;20260;-59
2022/01/28 00:57:00;;;;;;;7.40;6.57;;;6.40;99.90;;;;;;5053198;28;20206;-60
2022/01/28 00:59:28;;;;;;;7.90;5.87;;;6.40;99.90;;;;;;5052889;28;20280;-59
2022/01/28 01:01:55;;;;;;;8.73;6.10;;;6.50;99.90;;;;;;5053054;28;20336;-59
2022/01/28 01:04:23;;;;;;;8.40;6.20;;;6.40;99.90;;;;;;5053304;28;20208;-59
2022/01/28 01:06:49;;;;;;;7.03;5.60;;;6.50;99.90;;;;;;5052746;28;20719;-60
2022/01/28 01:09:16;;;;;;;8.00;6.10;;;6.40;99.90;;;;;;5052233;28;20209;-59
2022/01/28 01:11:43;;;;;;;8.57;6.27;;;6.50;99.90;;;;;;5052916;28;20253;-60
2022/01/28 01:14:09;;;;;;;7.43;6.10;;;6.50;99.90;;;;;;5052744;28;20278;-59
2022/01/28 01:16:47;;;;;;;6.47;5.60;;;6.50;99.90;;;;;;5053046;28;20611;-59
2022/01/28 01:19:20;;;;;;;8.07;5.87;;;6.50;99.90;;;;;;5052591;28;20212;-59
2022/01/28 01:21:53;;;;;;;7.83;6.03;;;6.40;99.90;;;;;;5053015;28;20202;-59
2022/01/28 01:24:22;;;;;;;8.67;6.00;;;6.30;99.90;;;;;;5052876;28;20255;-60
2022/01/28 01:26:49;;;;;;;6.10;5.27;;;6.10;99.90;;;;;;5052637;28;20209;-59
2022/01/28 01:29:19;;;;;;;8.27;6.10;;;6.00;99.90;;;;;;5052195;28;20208;-59
2022/01/28 01:31:49;;;;;;;7.10;5.83;;;5.90;99.90;;;;;;5052247;28;20225;-59
2022/01/28 01:34:18;;;;;;;6.40;5.47;;;5.80;99.90;;;;;;5052399;28;20209;-60
2022/01/28 01:36:45;;;;;;;7.40;5.83;;;5.70;99.90;;;;;;5052384;28;20293;-59
2022/01/28 01:39:15;;;;;;;7.13;5.50;;;5.70;99.90;;;;;;5052402;28;20227;-58
2022/01/28 01:41:46;;;;;;;7.03;6.03;;;5.80;99.90;;;;;;5052436;28;20206;-58
2022/01/28 01:44:22;;;;;;;9.70;6.17;;;5.80;99.90;;;;;;5052227;28;20263;-59
2022/01/28 01:52:00;;;;;;;9.50;6.53;;;5.90;99.90;;;;;;5052142;28;20205;-59
2022/01/28 01:52:43;;;;;;;7.23;5.80;;;6.00;99.90;;;;;;5026223;28;20248;-61
2022/01/28 01:55:10;;;;;;;9.50;6.47;;;6.00;99.90;;;;;;5052092;28;20208;-59
2022/01/28 01:57:38;;;;;;;8.50;6.00;;;6.00;99.90;;;;;;5052197;28;20306;-59
2022/01/28 02:00:07;;;;;;;8.63;6.67;;;6.00;99.90;;;;;;5051745;28;20236;-60
2022/01/28 02:02:35;;;;;;;7.27;6.20;;;6.10;99.90;;;;;;5052059;28;20212;-60
2022/01/28 02:05:03;;;;;;;7.20;6.37;;;6.10;99.90;;;;;;5052250;28;20229;-61
2022/01/28 02:07:30;;;;;;;8.60;6.73;;;6.10;99.90;;;;;;5052128;28;20318;-59
2022/01/28 02:09:56;;;;;;;7.70;6.50;;;6.00;99.90;;;;;;5051630;28;20230;-59
2022/01/28 02:12:23;;;;;;;8.27;6.60;;;6.00;99.90;;;;;;5051835;28;20221;-58
2022/01/28 02:14:50;;;;;;;7.70;6.83;;;6.00;99.90;;;;;;5051942;28;20209;-59
2022/01/28 02:17:17;;;;;;;9.23;6.43;;;6.00;99.90;;;;;;5051785;28;20232;-59
2022/01/28 02:19:45;;;;;;;9.20;6.80;;;6.00;99.90;;;;;;5051605;28;20226;-58
2022/01/28 02:22:14;;;;;;;7.90;6.30;;;5.90;99.90;;;;;;5051218;28;20216;-61
2022/01/28 02:24:43;;;;;;;8.87;6.87;;;5.90;99.90;;;;;;5051698;28;20237;-59
2022/01/28 02:27:13;;;;;;;7.33;6.20;;;5.80;99.90;;;;;;5051597;28;20214;-59
2022/01/28 02:29:41;;;;;;;10.23;6.70;;;5.70;99.90;;;;;;5051207;28;20710;-59
2022/01/28 02:32:08;;;;;;;7.73;6.10;;;5.50;99.90;;;;;;5051508;28;20304;-59
2022/01/28 02:34:38;;;;;;;8.83;6.70;;;5.40;99.90;;;;;;5051367;28;20296;-59
2022/01/28 02:37:05;;;;;;;9.93;5.77;;;5.40;99.90;;;;;;5051754;28;20580;-60
2022/01/28 02:39:33;;;;;;;10.47;6.90;;;5.50;99.90;;;;;;5051368;28;20729;-60
2022/01/28 02:42:06;;;;;;;8.47;5.80;;;5.50;99.90;;;;;;5051578;28;20251;-60
2022/01/28 02:44:44;;;;;;;8.13;6.07;;;5.50;99.90;;;;;;5051365;28;20232;-60
2022/01/28 02:47:14;;;;;;;8.87;6.30;;;5.50;99.90;;;;;;5051555;28;20826;-59
2022/01/28 02:49:43;;;;;;;7.57;5.93;;;5.50;99.90;;;;;;5051116;28;20283;-59
2022/01/28 02:52:18;;;;;;;6.97;5.67;;;5.60;99.90;;;;;;5051271;28;20245;-59
2022/01/28 02:54:48;;;;;;;6.63;5.67;;;5.60;99.90;;;;;;5051296;28;20582;-59
2022/01/28 02:57:20;;;;;;;8.00;6.20;;;5.70;99.90;;;;;;5051150;28;20728;-60
2022/01/28 02:59:46;;;;;;;10.30;6.20;;;5.70;99.90;;;;;;5051210;28;20246;-59
2022/01/28 03:02:13;;;;;;;7.33;5.63;;;5.60;99.90;;;;;;5051592;28;20248;-60
2022/01/28 03:05:06;;;;;;;7.90;6.10;;;5.60;99.90;;;;;;5051370;28;20296;-59
2022/01/28 03:07:33;;;;;;;7.10;6.10;;;5.70;99.90;;;;;;5051349;28;20205;-59
2022/01/28 03:10:27;;;;;;;7.57;5.50;;;5.60;99.90;;;;;;5050651;28;20249;-60
2022/01/28 03:13:16;;;;;;;7.57;6.23;;;5.60;99.90;;;;;;5051315;28;20277;-61
2022/01/28 03:15:50;;;;;;;7.47;6.07;;;5.50;99.90;;;;;;5051175;28;20280;-60
2022/01/28 03:18:22;;;;;;;8.90;6.37;;;5.40;99.90;;;;;;5050923;28;20230;-60
2022/01/28 03:21:00;;;;;;;9.00;6.60;;;5.40;99.90;;;;;;5050921;28;20226;-60
2022/01/28 03:23:27;;;;;;;8.30;6.23;;;5.40;99.90;;;;;;5051140;28;20681;-58
2022/01/28 03:25:55;;;;;;;8.27;6.50;;;5.50;99.90;;;;;;5051139;28;20253;-60
2022/01/28 03:28:22;;;;;;;8.30;6.60;;;5.40;99.90;;;;;;5051050;28;20206;-59
2022/01/28 03:30:49;;;;;;;10.57;6.80;;;5.40;99.90;;;;;;5050784;28;20645;-59
2022/01/28 03:33:16;;;;;;;9.23;6.17;;;5.40;99.90;;;;;;5053321;28;20226;-59
2022/01/28 03:35:43;;;;;;;8.97;6.23;;;5.40;99.90;;;;;;5054631;28;20677;-59
2022/01/28 03:38:12;;;;;;;7.77;5.90;;;5.50;99.90;;;;;;5054700;28;20209;-59
2022/01/28 03:40:41;;;;;;;8.00;6.30;;;5.50;99.90;;;;;;5054416;28;20225;-59
2022/01/28 03:43:09;;;;;;;10.00;6.20;;;5.50;99.90;;;;;;5054608;28;20206;-60
2022/01/28 03:45:36;;;;;;;8.10;6.30;;;5.60;99.90;;;;;;5054738;28;20263;-60
2022/01/28 03:48:04;;;;;;;7.80;6.43;;;5.60;99.90;;;;;;5054661;28;20263;-59
2022/01/28 03:50:33;;;;;;;7.10;6.27;;;5.50;99.90;;;;;;5054473;28;20229;-60
2022/01/28 03:53:00;;;;;;;7.67;6.13;;;5.50;99.90;;;;;;5054476;28;20272;-59
2022/01/28 03:55:27;;;;;;;9.40;6.33;;;5.60;99.90;;;;;;5055521;28;20673;-59
2022/01/28 03:57:54;;;;;;;7.93;5.90;;;5.50;99.90;;;;;;5054359;28;20210;-59
2022/01/28 04:00:26;;;;;;;10.40;6.27;;;5.50;99.90;;;;;;5054136;28;20230;-60
2022/01/28 04:03:02;;;;;;;8.50;6.10;;;5.70;99.90;;;;;;5054383;28;20543;-59
2022/01/28 04:13:48;;;;;;;10.00;7.27;;;5.90;99.90;;;;;;5048531;28;20200;-60
2022/01/28 04:16:30;;;;;;;23.77;17.67;;;5.90;99.90;;;;;;5054132;28;20221;-60
2022/01/28 04:19:01;;;;;;;9.70;6.80;;;5.50;99.90;;;;;;5054262;28;20212;-59
2022/01/28 04:21:28;;;;;;;10.83;6.37;;;5.70;99.90;;;;;;5053849;28;20201;-60
2022/01/28 04:23:54;;;;;;;7.13;5.80;;;5.70;99.90;;;;;;5053758;28;20260;-59
2022/01/28 04:26:21;;;;;;;8.17;5.97;;;5.60;99.90;;;;;;5053578;28;20244;-59
2022/01/28 04:28:48;;;;;;;9.33;6.23;;;5.50;99.90;;;;;;5054038;28;20549;-60
2022/01/28 04:31:16;;;;;;;10.87;6.47;;;5.50;99.90;;;;;;5053051;28;20230;-60
2022/01/28 04:33:42;;;;;;;8.10;6.33;;;5.40;99.90;;;;;;5053752;28;20205;-60
2022/01/28 04:36:12;;;;;;;9.20;6.57;;;5.40;99.90;;;;;;5053853;28;20202;-60
2022/01/28 04:38:45;;;;;;;10.17;6.37;;;5.30;99.90;;;;;;5053781;28;20294;-60
2022/01/28 04:41:19;;;;;;;9.67;6.67;;;5.20;99.90;;;;;;5053250;28;20287;-60
2022/01/28 04:43:51;;;;;;;11.23;6.97;;;5.10;99.90;;;;;;5052923;28;20217;-59
2022/01/28 04:46:29;;;;;;;10.20;7.67;;;5.00;99.90;;;;;;5053633;28;20732;-59
2022/01/28 04:49:02;;;;;;;8.43;6.70;;;5.00;99.90;;;;;;5053716;28;20640;-60
2022/01/28 04:51:45;;;;;;;9.47;7.03;;;5.00;99.90;;;;;;5053531;28;20217;-60
2022/01/28 04:54:33;;;;;;;7.93;6.50;;;5.00;99.90;;;;;;5053796;28;20193;-60
2022/01/28 04:57:07;;;;;;;9.03;7.17;;;4.90;99.90;;;;;;5053288;28;20209;-60
2022/01/28 04:59:45;;;;;;;11.17;7.43;;;5.00;99.90;;;;;;5052836;28;20571;-60
2022/01/28 05:02:34;;;;;;;10.57;7.03;;;5.10;99.90;;;;;;5053498;28;20198;-61
2022/01/28 05:05:17;;;;;;;9.20;7.40;;;5.20;99.90;;;;;;5052934;28;20662;-60
2022/01/28 05:08:06;;;;;;;9.43;6.90;;;5.30;99.90;;;;;;5053045;28;20555;-60
2022/01/28 05:27:05;;;;;;;8.90;7.27;;;4.80;99.90;;;;;;5039592;28;20351;-60
2022/01/28 05:29:32;;;;;;;11.40;7.90;;;4.70;99.90;;;;;;5052340;28;20312;-60
2022/01/28 05:31:58;;;;;;;12.47;8.43;;;4.60;99.90;;;;;;5052668;28;20229;-60
2022/01/28 05:34:27;;;;;;;15.43;8.80;;;4.40;99.90;;;;;;5052486;28;20621;-60
2022/01/28 05:36:55;;;;;;;14.33;8.47;;;4.40;99.90;;;;;;5052549;28;20209;-60
2022/01/28 05:39:22;;;;;;;11.30;8.27;;;4.40;99.90;;;;;;5052426;28;20255;-60
2022/01/28 05:41:48;;;;;;;11.00;7.67;;;4.30;99.90;;;;;;5052233;28;20212;-59
2022/01/28 05:44:15;;;;;;;11.03;8.10;;;4.20;99.90;;;;;;5052155;28;20259;-60
2022/01/28 05:46:44;;;;;;;9.67;8.00;;;4.10;99.90;;;;;;5052645;28;20209;-60
2022/01/28 05:49:11;;;;;;;12.10;8.77;;;4.10;99.90;;;;;;5052241;28;20752;-60
2022/01/28 05:51:39;;;;;;;14.60;8.30;;;4.00;99.90;;;;;;5052202;28;20233;-60
2022/01/28 05:54:06;;;;;;;13.43;9.13;;;4.00;99.90;;;;;;5052361;28;20206;-60
2022/01/28 05:56:33;;;;;;;11.60;8.90;;;3.90;99.90;;;;;;5051271;28;20662;-60
2022/01/28 05:59:00;;;;;;;11.10;8.33;;;3.90;99.90;;;;;;5052145;28;20213;-60
2022/01/28 06:01:27;;;;;;;12.73;8.90;;;3.90;99.90;;;;;;5051743;28;20597;-59
2022/01/28 06:03:53;;;;;;;16.13;12.57;;;3.90;99.90;;;;;;5052174;28;20205;-59
2022/01/28 06:06:22;;;;;;;14.90;8.80;;;3.90;99.90;;;;;;5052045;28;20206;-59
2022/01/28 06:08:51;;;;;;;14.63;8.90;;;3.90;99.90;;;;;;5051891;28;20265;-60
2022/01/28 06:11:19;;;;;;;12.87;9.00;;;3.80;99.90;;;;;;5051415;28;20267;-60
2022/01/28 06:13:45;;;;;;;13.77;9.50;;;3.80;99.90;;;;;;5051724;28;20775;-59
2022/01/28 06:16:14;;;;;;;13.57;8.90;;;3.80;99.90;;;;;;5051820;28;20633;-59
2022/01/28 06:18:41;;;;;;;14.30;9.53;;;3.80;99.90;;;;;;5051648;28;20201;-59
2022/01/28 06:21:08;;;;;;;15.80;9.80;;;3.80;99.90;;;;;;5051336;28;20228;-59
2022/01/28 06:23:35;;;;;;;14.03;9.60;;;3.80;99.90;;;;;;5051596;28;20201;-59
2022/01/28 06:26:04;;;;;;;15.70;9.07;;;3.80;99.90;;;;;;5051820;28;20267;-59
2022/01/28 06:28:31;;;;;;;14.70;9.50;;;3.70;99.90;;;;;;5051937;28;20201;-59
2022/01/28 06:30:58;;;;;;;15.30;9.53;;;3.80;99.90;;;;;;5051412;28;20728;-59
2022/01/28 06:33:25;;;;;;;17.93;10.10;;;3.90;99.90;;;;;;5051695;28;20230;-59
2022/01/28 06:35:52;;;;;;;13.47;8.90;;;4.10;99.90;;;;;;5051957;28;20206;-59
2022/01/28 06:38:19;;;;;;;13.50;9.07;;;4.40;99.90;;;;;;5052141;28;20209;-61
2022/01/28 06:40:46;;;;;;;13.47;9.70;;;4.50;99.90;;;;;;5051500;28;20693;-60
2022/01/28 06:43:15;;;;;;;13.43;9.27;;;4.70;99.90;;;;;;5051931;28;20221;-61
2022/01/28 06:45:43;;;;;;;14.53;10.00;;;4.80;99.90;;;;;;5051577;28;20205;-61
2022/01/28 06:48:10;;;;;;;14.20;9.10;;;4.90;99.90;;;;;;5051505;28;20201;-60
2022/01/28 06:50:37;;;;;;;13.73;9.73;;;4.90;99.90;;;;;;5051076;28;20309;-61
2022/01/28 06:53:04;;;;;;;15.23;9.03;;;4.90;99.90;;;;;;5051571;28;20320;-61
2022/01/28 06:55:31;;;;;;;13.07;9.03;;;5.00;99.90;;;;;;5051388;28;20263;-61
2022/01/28 06:57:58;;;;;;;15.60;9.67;;;5.00;99.90;;;;;;5051525;28;20202;-60
2022/01/28 07:00:26;;;;;;;15.57;9.90;;;5.10;99.90;;;;;;5051397;28;20225;-61
2022/01/28 07:02:53;;;;;;;11.93;9.27;;;5.10;99.90;;;;;;5051436;28;20213;-60
2022/01/28 07:05:20;;;;;;;14.77;9.27;;;5.10;99.90;;;;;;5051236;28;20681;-60
2022/01/28 07:07:47;;;;;;;17.17;9.30;;;5.20;99.90;;;;;;5052801;28;20244;-60
2022/01/28 07:10:14;;;;;;;13.80;9.50;;;5.20;99.90;;;;;;5054939;28;20268;-60
2022/01/28 07:12:41;;;;;;;12.33;9.23;;;5.20;99.90;;;;;;5055064;28;20226;-60
2022/01/28 07:15:09;;;;;;;12.73;8.73;;;5.30;99.90;;;;;;5054851;28;20210;-61
2022/01/28 07:17:37;;;;;;;15.23;10.37;;;5.40;99.90;;;;;;5054939;28;20697;-60
2022/01/28 07:20:05;;;;;;;14.00;9.27;;;5.50;99.90;;;;;;5054677;28;20222;-60
2022/01/28 07:22:31;;;;;;;25.47;16.30;;;5.60;99.90;;;;;;5055343;28;20198;-61
2022/01/28 07:24:58;;;;;;;22.23;13.23;;;5.60;99.90;;;;;;5054745;28;20209;-60
2022/01/28 07:27:25;;;;;;;13.20;9.10;;;5.70;99.90;;;;;;5055147;28;20206;-60
2022/01/28 07:29:51;;;;;;;12.40;8.43;;;5.70;99.90;;;;;;5054673;28;20314;-60
2022/01/28 07:32:18;;;;;;;12.80;9.60;;;5.80;99.90;;;;;;5054686;28;20236;-60
2022/01/28 07:34:47;;;;;;;11.37;7.77;;;5.70;99.90;;;;;;5055169;28;20212;-60
2022/01/28 07:37:14;;;;;;;13.07;8.80;;;5.70;99.90;;;;;;5054625;28;20205;-60
2022/01/28 07:39:40;;;;;;;13.23;8.50;;;5.80;99.90;;;;;;5053574;28;20229;-60
2022/01/28 07:42:08;;;;;;;12.83;7.87;;;5.80;99.90;;;;;;5054504;28;20217;-60
2022/01/28 07:44:34;;;;;;;13.27;8.30;;;5.80;99.90;;;;;;5054385;28;20209;-60
2022/01/28 07:47:01;;;;;;;11.87;7.90;;;5.90;99.90;;;;;;5054293;28;20205;-60
2022/01/28 07:49:28;;;;;;;11.47;7.67;;;6.00;99.90;;;;;;5054987;28;20508;-60
2022/01/28 07:51:56;;;;;;;10.33;7.47;;;6.10;99.90;;;;;;5054967;28;20209;-60
2022/01/28 07:54:23;;;;;;;11.90;7.50;;;6.20;99.90;;;;;;5055397;28;20276;-60
2022/01/28 07:56:53;;;;;;;13.43;7.80;;;6.30;99.90;;;;;;5055331;28;20201;-60
2022/01/28 07:59:20;;;;;;;9.47;7.10;;;6.30;99.90;;;;;;5054373;28;20251;-60
2022/01/28 08:01:47;;;;;;;11.73;7.13;;;6.40;99.90;;;;;;5054156;28;20208;-60
2022/01/28 08:04:13;;;;;;;9.80;7.40;;;6.40;99.90;;;;;;5054276;28;20205;-60
2022/01/28 08:06:40;;;;;;;9.97;7.70;;;6.40;99.90;;;;;;5054200;28;20255;-60
2022/01/28 08:09:08;;;;;;;12.93;8.30;;;6.40;99.90;;;;;;5054147;28;20213;-60
2022/01/28 08:11:35;;;;;;;11.83;8.10;;;6.40;99.90;;;;;;5053890;28;20620;-60
2022/01/28 08:14:02;;;;;;;11.10;7.50;;;6.40;99.90;;;;;;5053767;28;20632;-60
2022/01/28 08:16:29;;;;;;;10.53;7.40;;;6.40;99.90;;;;;;5054114;28;20213;-60
2022/01/28 08:18:56;;;;;;;13.03;7.77;;;6.40;99.90;;;;;;5053079;28;20206;-60
2022/01/28 08:21:22;;;;;;;12.07;7.30;;;6.40;99.90;;;;;;5053512;28;20244;-60
2022/01/28 08:23:49;;;;;;;11.80;7.03;;;6.40;99.90;;;;;;5054099;28;20278;-60
2022/01/28 08:26:19;;;;;;;12.20;7.00;;;6.50;99.90;;;;;;5053658;28;20240;-60
2022/01/28 08:28:47;;;;;;;8.80;6.97;;;6.50;99.90;;;;;;5053575;28;20260;-60
2022/01/28 08:31:14;;;;;;;11.23;7.37;;;6.60;99.90;;;;;;5053562;28;20261;-60
2022/01/28 08:33:41;;;;;;;11.60;7.20;;;6.70;99.90;;;;;;5053756;28;20585;-60
2022/01/28 08:36:08;;;;;;;11.33;7.20;;;6.60;99.90;;;;;;5053370;28;20210;-60
2022/01/28 08:38:38;;;;;;;9.20;6.63;;;6.80;99.90;;;;;;5053495;28;20224;-60
2022/01/28 08:41:05;;;;;;;10.77;7.40;;;6.90;99.90;;;;;;5053033;28;20605;-60
2022/01/28 08:43:33;;;;;;;11.80;7.70;;;7.10;99.90;;;;;;5053105;28;20574;-60
2022/01/28 08:46:00;;;;;;;12.27;7.10;;;7.30;99.90;;;;;;5053480;28;20216;-60
2022/01/28 08:48:27;;;;;;;9.40;7.10;;;7.50;99.90;;;;;;5053430;28;20284;-60
2022/01/28 08:50:55;;;;;;;9.53;6.70;;;7.70;99.90;;;;;;5052874;28;20226;-60
2022/01/28 08:53:21;;;;;;;9.47;6.77;;;7.90;99.90;;;;;;5052954;28;20696;-60
2022/01/28 08:55:48;;;;;;;8.83;6.50;;;8.00;99.90;;;;;;5053003;28;20205;-60
2022/01/28 08:58:15;;;;;;;9.20;6.80;;;8.10;99.90;;;;;;5052882;28;20674;-60
2022/01/28 09:00:46;;;;;;;9.10;6.40;;;8.00;99.90;;;;;;5052953;28;20283;-60
2022/01/28 09:03:12;;;;;;;11.07;6.77;;;8.10;99.90;;;;;;5053236;28;20212;-60
2022/01/28 09:05:39;;;;;;;10.57;6.67;;;8.10;99.90;;;;;;5052917;28;20209;-60
2022/01/28 09:08:08;;;;;;;11.57;7.00;;;8.10;99.90;;;;;;5052863;28;20340;-60
2022/01/28 09:10:37;;;;;;;10.90;6.10;;;8.20;99.90;;;;;;5052635;28;20237;-60
2022/01/28 09:13:24;;;;;;;9.13;5.77;;;8.10;99.90;;;;;;5052745;28;20576;-60
2022/01/28 09:15:55;;;;;;;10.37;6.10;;;8.00;99.90;;;;;;5052915;28;20212;-66
2022/01/28 09:18:22;;;;;;;11.67;5.83;;;8.00;99.90;;;;;;5052819;28;20233;-71
2022/01/28 09:20:49;;;;;;;9.87;5.83;;;8.10;99.90;;;;;;5052194;28;20709;-61
2022/01/28 09:23:17;;;;;;;8.63;5.53;;;8.20;99.90;;;;;;5052833;28;20480;-61
2022/01/28 09:25:44;;;;;;;10.23;6.00;;;8.40;99.90;;;;;;5052514;28;20209;-60
2022/01/28 09:28:11;;;;;;;8.93;5.73;;;8.60;99.90;;;;;;5052685;28;20205;-61
2022/01/28 09:30:38;;;;;;;9.73;5.87;;;8.60;99.90;;;;;;5051993;28;20275;-61
2022/01/28 09:33:07;;;;;;;7.57;5.17;;;8.80;99.90;;;;;;5052239;28;20221;-61
2022/01/28 09:35:35;;;;;;;10.03;5.37;;;9.00;99.90;;;;;;5052799;28;20217;-61
2022/01/28 09:38:02;;;;;;;7.07;5.07;;;9.30;99.90;;;;;;5052454;28;20223;-64
2022/01/28 09:40:29;;;;;;;7.67;5.27;;;9.50;99.90;;;;;;5051983;28;20225;-63
2022/01/28 09:42:56;;;;;;;8.63;5.60;;;9.60;99.90;;;;;;5052067;28;20275;-64
2022/01/28 09:45:25;;;;;;;10.63;4.43;;;9.60;99.90;;;;;;5052227;28;20271;-64
2022/01/28 09:47:53;;;;;;;10.87;6.10;;;9.60;99.90;;;;;;5052123;28;20205;-64
2022/01/28 09:50:23;;;;;;;13.37;6.87;;;9.60;99.90;;;;;;5052458;28;20228;-64
2022/01/28 09:52:50;;;;;;;7.87;4.50;;;9.60;99.90;;;;;;5052371;28;20228;-63
2022/01/28 09:55:17;;;;;;;9.93;4.70;;;9.50;99.90;;;;;;5052056;28;20593;-64
2022/01/28 09:57:45;;;;;;;7.53;4.63;;;9.50;99.90;;;;;;5051889;28;20296;-64
2022/01/28 10:00:13;;;;;;;7.27;4.50;;;9.50;99.90;;;;;;5051639;28;20321;-64
2022/01/28 10:02:55;;;;;;;9.17;4.73;;;9.30;99.90;;;;;;5052404;28;20206;-64
2022/01/28 10:05:26;;;;;;;8.13;4.80;;;9.20;99.90;;;;;;5052190;28;20209;-64
2022/01/28 10:08:10;;;;;;;8.23;4.67;;;9.20;99.90;;;;;;5051998;28;20209;-64
2022/01/28 10:10:49;;;;;;;11.07;5.07;;;9.20;99.90;;;;;;5051495;28;20286;-64
2022/01/28 10:13:19;;;;;;;6.90;4.73;;;9.30;99.90;;;;;;5051767;28;20225;-64
2022/01/28 10:16:04;;;;;;;10.33;4.77;;;9.50;99.90;;;;;;5051499;28;20692;-64
2022/01/28 10:18:40;;;;;;;9.07;4.70;;;9.60;99.90;;;;;;5051429;28;20205;-64
2022/01/28 10:21:31;;;;;;;10.40;4.67;;;9.60;99.90;;;;;;5051168;28;20232;-64
2022/01/28 10:24:06;;;;;;;13.67;4.60;;;9.50;99.90;;;;;;5052113;28;20208;-63
2022/01/28 10:26:37;;;;;;;8.07;5.07;;;9.30;99.90;;;;;;5051902;28;20205;-64
2022/01/28 10:29:05;;;;;;;9.23;4.43;;;9.40;99.90;;;;;;5051740;28;20209;-64
2022/01/28 10:31:36;;;;;;;10.57;4.80;;;9.40;99.90;;;;;;5051352;28;20727;-64
2022/01/28 10:34:11;;;;;;;6.60;4.50;;;9.30;99.90;;;;;;5052076;28;20236;-63
2022/01/28 10:36:39;;;;;;;7.50;4.57;;;9.40;99.90;;;;;;5052318;28;20295;-64
2022/01/28 10:39:05;;;;;;;10.97;5.20;;;9.60;99.90;;;;;;5052296;28;20624;-64
2022/01/28 10:41:32;;;;;;;8.07;4.77;;;9.70;99.90;;;;;;5051997;28;20209;-61
2022/01/28 10:44:01;;;;;;;8.00;4.97;;;9.70;99.90;;;;;;5055498;28;20257;-61
2022/01/28 10:46:30;;;;;;;15.97;4.90;;;9.70;99.90;;;;;;5056315;28;20232;-61
2022/01/28 10:48:59;;;;;;;7.53;4.40;;;9.90;99.90;;;;;;5056092;28;20300;-61
2022/01/28 10:51:41;;;;;;;7.40;4.30;;;10.10;99.90;;;;;;5055812;28;20275;-61
2022/01/28 10:54:09;;;;;;;7.83;4.73;;;10.30;99.90;;;;;;5055687;28;20227;-61
2022/01/28 10:56:50;;;;;;;14.20;6.10;;;10.30;99.90;;;;;;5055323;28;20208;-62
2022/01/28 10:59:19;;;;;;;8.13;3.97;;;10.30;99.90;;;;;;5055827;28;20232;-61
2022/01/28 11:01:47;;;;;;;8.87;3.87;;;10.30;99.90;;;;;;5055118;28;20554;-61
2022/01/28 11:04:15;;;;;;;7.77;4.67;;;10.30;99.90;;;;;;5055678;28;20201;-61
2022/01/28 11:06:45;;;;;;;12.27;4.53;;;10.20;99.90;;;;;;5055479;28;20255;-61
2022/01/28 11:09:14;;;;;;;12.23;4.77;;;10.20;99.90;;;;;;5055194;28;20267;-62
2022/01/28 11:11:41;;;;;;;10.90;4.77;;;10.10;99.90;;;;;;5055506;28;20625;-64
2022/01/28 11:14:08;;;;;;;9.03;4.60;;;10.20;99.90;;;;;;5055282;28;20621;-63
2022/01/28 11:16:36;;;;;;;11.07;4.80;;;10.50;99.90;;;;;;5055360;28;20757;-64
2022/01/28 11:19:04;;;;;;;9.13;4.33;;;10.70;99.90;;;;;;5055220;28;20263;-64
2022/01/28 11:21:43;;;;;;;10.83;5.80;;;10.90;99.90;;;;;;5050868;28;20466;-69
2022/01/28 11:24:21;;;;;;;10.37;4.50;;;10.80;99.90;;;;;;5055062;28;20197;-66
2022/01/28 11:26:54;;;;;;;7.03;3.83;;;10.50;99.90;;;;;;5054755;28;20712;-62
2022/01/28 11:29:24;;;;;;;7.80;4.03;;;10.10;99.90;;;;;;5054958;28;20209;-65
2022/01/28 11:31:52;;;;;;;7.37;4.40;;;9.80;99.90;;;;;;5053910;28;20305;-61
2022/01/28 11:34:23;;;;;;;10.47;4.73;;;9.70;99.90;;;;;;5048034;28;20233;-61
2022/01/28 11:36:50;;;;;;;8.10;4.27;;;9.70;99.90;;;;;;5054418;28;20205;-59
2022/01/28 11:39:28;;;;;;;8.53;4.33;;;9.80;99.90;;;;;;5054714;28;20561;-58
2022/01/28 11:42:25;;;;;;;12.10;5.30;;;9.70;99.90;;;;;;5054529;28;20220;-58
2022/01/28 11:44:56;;;;;;;9.13;4.37;;;9.70;99.90;;;;;;5053866;28;20209;-58
2022/01/28 11:47:26;;;;;;;13.40;4.30;;;9.70;99.90;;;;;;5054908;28;20209;-60
2022/01/28 11:49:57;;;;;;;8.60;4.43;;;9.80;99.90;;;;;;5054588;28;20313;-63
2022/01/28 11:52:27;;;;;;;10.50;4.27;;;9.60;99.90;;;;;;5054048;28;20213;-65
2022/01/28 11:54:56;;;;;;;11.50;4.43;;;9.60;99.90;;;;;;5054476;28;20662;-64
2022/01/28 11:57:26;;;;;;;6.63;4.10;;;9.70;99.90;;;;;;5055980;28;20381;-59
2022/01/28 12:00:19;;;;;;;8.00;4.50;;;9.70;99.90;;;;;;5054876;28;20232;-60
2022/01/28 12:02:50;;;;;;;6.43;3.90;;;9.80;99.90;;;;;;5055285;28;20209;-60
2022/01/28 12:05:45;;;;;;;7.33;3.63;;;9.80;99.90;;;;;;5054339;28;20202;-60
2022/01/28 12:08:13;;;;;;;7.60;3.40;;;9.80;99.90;;;;;;5055127;28;20216;-60
2022/01/28 12:10:45;;;;;;;8.63;4.60;;;9.70;99.90;;;;;;5054019;28;20237;-62
2022/01/28 12:13:16;;;;;;;13.00;4.57;;;9.40;99.90;;;;;;5053872;28;20626;-60
2022/01/28 12:16:10;;;;;;;8.30;4.47;;;9.30;99.90;;;;;;5054351;28;20221;-60
2022/01/28 12:18:53;;;;;;;7.67;4.20;;;9.20;99.90;;;;;;5053879;28;20233;-60
2022/01/28 12:21:22;;;;;;;8.87;4.60;;;9.30;99.90;;;;;;5053257;28;20720;-60
2022/01/28 12:23:49;;;;;;;9.53;5.03;;;9.50;99.90;;;;;;5053399;28;20277;-60
2022/01/28 12:26:19;;;;;;;8.37;4.50;;;9.90;99.90;;;;;;5053024;28;20677;-60
2022/01/28 12:28:53;;;;;;;7.80;4.03;;;10.30;99.90;;;;;;5053506;28;20213;-60
2022/01/28 12:31:22;;;;;;;6.97;4.20;;;10.50;99.90;;;;;;5052847;28;20283;-61
2022/01/28 12:33:51;;;;;;;10.10;3.90;;;10.60;99.90;;;;;;5053430;28;20209;-61
2022/01/28 12:36:21;;;;;;;8.17;4.10;;;10.90;99.90;;;;;;5053545;28;20220;-61
2022/01/28 12:38:59;;;;;;;5.80;3.90;;;11.20;99.90;;;;;;5054265;28;20252;-63
2022/01/28 12:41:29;;;;;;;12.97;6.70;;;11.40;99.90;;;;;;5053177;28;20312;-63
2022/01/28 12:43:56;;;;;;;9.40;4.07;;;11.40;99.90;;;;;;5052908;28;20248;-62
2022/01/28 12:46:25;;;;;;;6.50;3.90;;;11.40;99.90;;;;;;5053772;28;20206;-64
2022/01/28 12:48:53;;;;;;;6.00;3.83;;;11.30;99.90;;;;;;5053142;28;20208;-64
2022/01/28 12:51:22;;;;;;;8.63;4.03;;;11.00;99.90;;;;;;5052847;28;20657;-62
2022/01/28 12:53:54;;;;;;;10.07;3.47;;;10.80;99.90;;;;;;5053228;28;20259;-65
2022/01/28 12:56:32;;;;;;;7.20;3.40;;;10.60;99.90;;;;;;5054726;28;20211;-65
2022/01/28 12:59:00;;;;;;;6.90;4.00;;;10.50;99.90;;;;;;5054430;28;20279;-64
2022/01/28 13:01:26;;;;;;;8.37;4.23;;;10.40;99.90;;;;;;5052988;28;20233;-65
2022/01/28 13:04:04;;;;;;;8.33;3.93;;;10.30;99.90;;;;;;5053370;28;20217;-64
2022/01/28 13:06:43;;;;;;;8.83;4.07;;;10.30;99.90;;;;;;5052775;28;20212;-64
2022/01/28 13:09:14;;;;;;;9.23;4.33;;;10.30;99.90;;;;;;5052987;28;20209;-65
2022/01/28 13:11:43;;;;;;;8.30;4.10;;;10.40;99.90;;;;;;5052627;28;20213;-64
2022/01/28 13:14:11;;;;;;;7.83;4.20;;;10.40;99.90;;;;;;5052637;28;20225;-64
2022/01/28 13:16:40;;;;;;;5.87;4.10;;;10.50;99.90;;;;;;5053178;28;20296;-68
2022/01/28 13:19:09;;;;;;;8.23;4.30;;;10.50;99.90;;;;;;5052826;28;20216;-65
2022/01/28 13:21:36;;;;;;;9.33;4.43;;;10.20;99.90;;;;;;5052820;28;20212;-63
2022/01/28 13:24:11;;;;;;;8.17;4.30;;;10.10;99.90;;;;;;5053189;28;20220;-63
2022/01/28 13:26:54;;;;;;;8.40;4.73;;;9.90;99.90;;;;;;5052599;28;20201;-64
2022/01/28 13:29:30;;;;;;;6.70;4.43;;;9.70;99.90;;;;;;5052541;28;20577;-64
2022/01/28 13:31:58;;;;;;;7.93;5.03;;;9.70;99.90;;;;;;5052293;28;20206;-62
2022/01/28 13:34:24;;;;;;;8.57;5.03;;;9.60;99.90;;;;;;5052651;28;20316;-63
2022/01/28 13:36:53;;;;;;;7.80;5.27;;;9.50;99.90;;;;;;5052448;28;20214;-63
2022/01/28 13:39:22;;;;;;;8.13;4.93;;;9.20;99.90;;;;;;5052844;28;20209;-63
2022/01/28 13:42:06;;;;;;;8.67;5.30;;;8.90;99.90;;;;;;5052589;28;20391;-63
2022/01/28 13:44:37;;;;;;;9.20;5.00;;;8.70;99.90;;;;;;5052554;28;20239;-64
2022/01/28 13:47:04;;;;;;;8.50;5.60;;;8.50;99.90;;;;;;5052151;28;20268;-62
2022/01/28 13:49:33;;;;;;;12.03;6.33;;;8.40;99.90;;;;;;5052083;28;20226;-63
2022/01/28 13:52:22;;;;;;;9.40;5.57;;;8.20;99.90;;;;;;5052293;28;20275;-61
2022/01/28 13:54:49;;;;;;;9.90;5.83;;;8.30;99.90;;;;;;5052101;28;20226;-63